Time;durP1;ratioP1;P1;durP2;ratioP2;P2;SDS_P1;SDS_P2;PMS_P1;PMS_P2;Temp;Humidity;BMP_temperature;BMP_pressure;BME280_temperature;BME280_humidity;BME280_pressure;Samples;Min_cycle;Max_cycle;Signal;HPM_P1;HPM_P2
2021/12/10 00:00:08;;;;;;;6.95;6.65;;;12.00;82.10;;;;;;5044738;28;20033;-91
2021/12/10 00:02:35;;;;;;;7.50;7.10;;;12.10;82.30;;;;;;5031088;28;20060;-90
2021/12/10 00:05:04;;;;;;;7.25;6.95;;;12.10;82.40;;;;;;5029942;28;20029;-91
2021/12/10 00:07:30;;;;;;;8.52;8.13;;;12.10;82.40;;;;;;5033232;28;20047;-90
2021/12/10 00:10:00;;;;;;;7.22;6.93;;;12.00;82.30;;;;;;5032528;28;20393;-92
2021/12/10 00:12:29;;;;;;;6.75;6.45;;;12.00;82.40;;;;;;5035480;28;20032;-91
2021/12/10 00:14:56;;;;;;;6.80;6.50;;;12.00;82.40;;;;;;5033994;28;20378;-90
2021/12/10 00:17:23;;;;;;;7.40;7.00;;;11.90;82.40;;;;;;5033942;28;20038;-92
2021/12/10 00:19:52;;;;;;;6.78;6.47;;;11.90;82.50;;;;;;5019840;28;20045;-92
2021/12/10 00:22:25;;;;;;;6.78;6.47;;;11.90;82.50;;;;;;5032272;28;20497;-90
2021/12/10 00:24:52;;;;;;;6.57;6.28;;;11.80;82.60;;;;;;5034800;28;20045;-90
2021/12/10 00:27:28;;;;;;;7.82;6.63;;;11.80;82.60;;;;;;5029286;28;20045;-91
2021/12/10 00:30:03;;;;;;;7.10;6.80;;;11.80;82.60;;;;;;5036603;28;20064;-91
2021/12/10 00:32:34;;;;;;;6.82;6.53;;;11.70;82.60;;;;;;5030152;28;20049;-91
2021/12/10 00:35:02;;;;;;;6.80;6.50;;;11.70;82.70;;;;;;5049284;28;20020;-90
2021/12/10 00:37:29;;;;;;;7.85;7.45;;;11.60;82.70;;;;;;5030903;28;20040;-91
2021/12/10 00:39:57;;;;;;;7.00;6.70;;;11.60;82.70;;;;;;5033700;28;20041;-91
2021/12/10 00:42:26;;;;;;;6.78;6.47;;;11.60;82.70;;;;;;5029686;28;20052;-91
2021/12/10 00:44:53;;;;;;;6.80;6.50;;;11.60;82.80;;;;;;5034987;28;20401;-91
2021/12/10 00:47:19;;;;;;;6.90;6.60;;;11.60;82.90;;;;;;5030555;28;20056;-90
2021/12/10 00:49:45;;;;;;;6.13;5.82;;;11.50;82.80;;;;;;5031437;28;20040;-90
2021/12/10 00:52:13;;;;;;;6.28;5.97;;;11.50;82.80;;;;;;5034452;28;20048;-91
2021/12/10 00:54:39;;;;;;;6.90;6.57;;;11.50;82.80;;;;;;5048823;28;20064;-93
2021/12/10 00:57:06;;;;;;;11.88;6.97;;;11.40;82.80;;;;;;5031717;28;20505;-91
2021/12/10 00:59:32;;;;;;;6.80;6.50;;;11.40;82.80;;;;;;5033594;28;20044;-91
2021/12/10 01:01:59;;;;;;;6.70;6.40;;;11.40;82.80;;;;;;5029500;28;20043;-92
2021/12/10 01:04:28;;;;;;;7.00;6.70;;;11.40;82.90;;;;;;5016307;28;20064;-91
2021/12/10 01:06:56;;;;;;;11.75;6.82;;;11.30;82.80;;;;;;5030173;28;20040;-91
2021/12/10 01:09:25;;;;;;;6.35;6.05;;;11.30;82.80;;;;;;5032407;28;20033;-92
2021/12/10 01:11:55;;;;;;;7.13;6.72;;;11.30;82.80;;;;;;5034664;28;20037;-90
2021/12/10 01:14:37;;;;;;;7.45;7.05;;;11.30;82.90;;;;;;5039019;28;20033;-90
2021/12/10 01:25:37;;;;;;;7.65;7.32;;;11.10;82.80;;;;;;5046408;28;20516;-91
2021/12/10 01:28:03;;;;;;;6.95;6.65;;;11.10;83.60;;;;;;5029595;28;20037;-91
2021/12/10 01:30:32;;;;;;;7.15;6.85;;;11.10;82.80;;;;;;5029599;28;20402;-90
2021/12/10 01:33:08;;;;;;;7.32;7.03;;;11.00;82.80;;;;;;5033808;28;20466;-91
2021/12/10 01:35:38;;;;;;;7.65;7.35;;;11.00;82.80;;;;;;5042330;28;20052;-89
2021/12/10 01:38:05;;;;;;;7.32;7.03;;;11.00;82.80;;;;;;5048013;28;20037;-91
2021/12/10 01:40:31;;;;;;;11.63;7.40;;;11.00;82.80;;;;;;5014481;28;20037;-91
2021/12/10 01:43:05;;;;;;;10.32;9.82;;;11.00;82.80;;;;;;5031433;28;20044;-90
2021/12/10 01:45:35;;;;;;;9.32;8.93;;;11.00;82.70;;;;;;5029163;28;20048;-88
2021/12/10 01:48:05;;;;;;;7.97;7.57;;;10.90;82.60;;;;;;5048577;28;20055;-89
2021/12/10 01:50:31;;;;;;;7.43;7.10;;;10.90;82.60;;;;;;5044348;28;20033;-92
2021/12/10 01:53:00;;;;;;;8.07;7.68;;;10.80;82.60;;;;;;5030395;28;20072;-89
2021/12/10 01:55:27;;;;;;;7.25;6.95;;;10.70;82.60;;;;;;5048375;28;20029;-90
2021/12/10 01:57:53;;;;;;;7.45;7.15;;;10.70;82.60;;;;;;5032933;28;20509;-91
2021/12/10 02:00:21;;;;;;;7.20;6.90;;;10.60;82.70;;;;;;5044978;28;20028;-90
2021/12/10 02:02:48;;;;;;;7.45;7.15;;;10.60;82.70;;;;;;5033352;28;20056;-89
2021/12/10 02:05:14;;;;;;;8.48;8.07;;;10.50;83.40;;;;;;5029163;28;20478;-89
2021/12/10 02:07:41;;;;;;;8.85;8.45;;;10.60;82.80;;;;;;5046855;28;20465;-89
2021/12/10 02:10:08;;;;;;;10.77;10.27;;;10.50;82.70;;;;;;5045507;28;20033;-88
2021/12/10 02:12:34;;;;;;;8.50;8.02;;;10.50;82.70;;;;;;5046123;28;20032;-89
2021/12/10 02:15:02;;;;;;;8.88;8.40;;;10.50;82.70;;;;;;5045126;28;20108;-90
2021/12/10 02:17:35;;;;;;;9.18;8.77;;;10.50;82.70;;;;;;5047545;28;20037;-90
2021/12/10 02:20:04;;;;;;;8.23;7.82;;;10.50;82.70;;;;;;5034133;28;20052;-90
2021/12/10 02:22:30;;;;;;;8.43;7.72;;;10.50;82.70;;;;;;5018650;28;20045;-90
2021/12/10 02:24:57;;;;;;;8.88;8.48;;;10.50;82.70;;;;;;5034359;28;20041;-91
2021/12/10 02:27:23;;;;;;;14.02;13.35;;;10.50;82.70;;;;;;5046645;28;20040;-90
2021/12/10 02:29:49;;;;;;;8.38;7.97;;;10.50;82.70;;;;;;5046740;28;20045;-92
2021/12/10 02:32:15;;;;;;;8.70;8.30;;;10.50;83.40;;;;;;5034807;28;20389;-92
2021/12/10 02:34:43;;;;;;;8.65;8.25;;;10.40;82.60;;;;;;5030635;28;20040;-92
2021/12/10 02:37:09;;;;;;;8.50;7.90;;;10.40;82.60;;;;;;5012522;28;20049;-90
2021/12/10 02:39:35;;;;;;;8.48;7.78;;;10.40;82.60;;;;;;5029087;28;20308;-90
2021/12/10 02:42:01;;;;;;;8.02;7.63;;;10.40;82.60;;;;;;5045697;28;20033;-89
2021/12/10 02:44:29;;;;;;;7.97;7.57;;;10.40;82.60;;;;;;5048363;28;20046;-91
2021/12/10 02:46:55;;;;;;;7.70;7.30;;;10.40;82.70;;;;;;5045916;28;20041;-91
2021/12/10 02:49:21;;;;;;;7.90;7.50;;;10.30;82.70;;;;;;5044776;28;20500;-91
2021/12/10 02:51:47;;;;;;;8.50;7.82;;;10.40;82.70;;;;;;5029164;28;20045;-89
2021/12/10 02:54:16;;;;;;;8.63;8.23;;;10.40;82.70;;;;;;5049120;28;20048;-90
2021/12/10 02:56:44;;;;;;;12.82;7.45;;;10.40;82.70;;;;;;5049114;28;20052;-90
2021/12/10 02:59:10;;;;;;;8.98;7.55;;;10.30;82.50;;;;;;5051649;28;20044;-90
2021/12/10 03:01:38;;;;;;;10.25;9.75;;;10.30;82.50;;;;;;5052192;28;20470;-89
2021/12/10 03:04:07;;;;;;;8.15;7.75;;;10.30;82.60;;;;;;5025413;28;20057;-90
2021/12/10 03:06:36;;;;;;;7.28;6.97;;;10.30;82.50;;;;;;5023688;28;20048;-90
2021/12/10 03:09:02;;;;;;;7.00;6.70;;;10.20;82.60;;;;;;5030372;28;20377;-91
2021/12/10 03:11:30;;;;;;;7.00;6.70;;;10.20;82.60;;;;;;5032790;28;20429;-91
2021/12/10 03:13:57;;;;;;;6.72;6.43;;;10.20;82.60;;;;;;5037837;28;20041;-91
2021/12/10 03:16:23;;;;;;;7.00;6.70;;;10.10;82.60;;;;;;5031800;28;20032;-90
2021/12/10 03:18:50;;;;;;;7.50;7.10;;;10.10;82.60;;;;;;5056150;28;20474;-90
2021/12/10 03:21:16;;;;;;;8.35;7.95;;;10.10;82.70;;;;;;5055361;28;20037;-91
2021/12/10 03:23:44;;;;;;;6.80;6.50;;;10.10;82.70;;;;;;5050637;28;20037;-90
2021/12/10 03:26:11;;;;;;;7.20;6.85;;;10.00;82.70;;;;;;5040760;28;20521;-90
2021/12/10 03:28:41;;;;;;;7.20;6.90;;;10.00;82.60;;;;;;5065911;28;20039;-91
2021/12/10 03:31:07;;;;;;;7.97;7.20;;;10.00;82.70;;;;;;5016100;28;20470;-90
2021/12/10 03:33:34;;;;;;;7.40;7.05;;;10.00;82.70;;;;;;5031994;28;20049;-91
2021/12/10 03:36:00;;;;;;;11.95;11.38;;;10.00;82.70;;;;;;5049992;28;20040;-90
2021/12/10 03:38:26;;;;;;;8.05;7.65;;;10.00;82.70;;;;;;5049816;28;20036;-92
2021/12/10 03:40:53;;;;;;;9.85;9.38;;;10.00;82.70;;;;;;5035663;28;20052;-88
2021/12/10 03:43:19;;;;;;;7.45;7.15;;;10.00;82.70;;;;;;5034581;28;20048;-91
2021/12/10 03:45:47;;;;;;;7.60;7.30;;;9.90;82.60;;;;;;5050575;28;20033;-91
2021/12/10 03:48:15;;;;;;;7.40;7.10;;;10.00;82.60;;;;;;5033425;28;20052;-92
2021/12/10 03:50:42;;;;;;;6.95;6.65;;;9.90;82.50;;;;;;5035128;28;20048;-90
2021/12/10 03:53:08;;;;;;;8.85;7.38;;;10.00;82.60;;;;;;5052509;28;20029;-89
2021/12/10 03:55:34;;;;;;;6.78;6.47;;;10.00;82.50;;;;;;5035234;28;20048;-89
2021/12/10 03:58:01;;;;;;;6.90;6.60;;;9.90;82.50;;;;;;5051675;28;20485;-90
2021/12/10 04:00:31;;;;;;;7.00;6.70;;;10.00;82.50;;;;;;5033107;28;20193;-90
2021/12/10 04:02:57;;;;;;;6.78;6.47;;;9.90;82.40;;;;;;5049104;28;20474;-91
2021/12/10 04:05:23;;;;;;;8.45;7.80;;;9.90;82.40;;;;;;5049283;28;20487;-90
2021/12/10 04:07:50;;;;;;;7.07;6.78;;;9.90;82.40;;;;;;5046860;28;20370;-89
2021/12/10 04:10:16;;;;;;;7.32;7.03;;;9.90;82.30;;;;;;5046177;28;20033;-86
2021/12/10 04:12:42;;;;;;;7.60;7.30;;;9.90;82.40;;;;;;5046981;28;20033;-88
2021/12/10 04:15:09;;;;;;;7.57;7.28;;;9.90;82.20;;;;;;5031606;28;20397;-89
2021/12/10 04:17:35;;;;;;;7.60;7.15;;;9.80;82.20;;;;;;5048432;28;20021;-90
2021/12/10 04:20:02;;;;;;;9.32;8.93;;;9.80;82.20;;;;;;5051424;28;20025;-89
2021/12/10 04:22:32;;;;;;;7.63;7.30;;;9.80;82.20;;;;;;5033097;28;20028;-89
2021/12/10 04:25:00;;;;;;;7.47;7.18;;;9.80;82.30;;;;;;5035425;28;20410;-89
2021/12/10 04:27:26;;;;;;;7.38;7.07;;;9.80;82.20;;;;;;5049394;28;20029;-89
2021/12/10 04:29:56;;;;;;;7.82;7.45;;;9.70;82.20;;;;;;5034266;28;20417;-89
2021/12/10 04:32:23;;;;;;;7.57;7.28;;;9.70;82.20;;;;;;5033469;28;20030;-88
2021/12/10 04:34:50;;;;;;;8.25;7.85;;;9.70;82.20;;;;;;5035599;28;20026;-89
2021/12/10 04:37:16;;;;;;;8.32;7.93;;;9.70;82.20;;;;;;5033087;28;20041;-91
2021/12/10 04:39:46;;;;;;;8.20;7.80;;;9.60;82.20;;;;;;5049218;28;20037;-88
2021/12/10 04:42:16;;;;;;;8.20;7.80;;;9.60;82.20;;;;;;5049225;28;20021;-90
2021/12/10 04:44:42;;;;;;;8.13;7.72;;;9.60;82.30;;;;;;5018416;28;20049;-88
2021/12/10 04:47:09;;;;;;;8.52;8.13;;;9.50;82.30;;;;;;5032111;28;20037;-89
2021/12/10 04:49:35;;;;;;;8.80;8.40;;;9.50;82.30;;;;;;5035381;28;20035;-91
2021/12/10 04:52:02;;;;;;;8.10;7.70;;;9.50;82.30;;;;;;5052456;28;20021;-90
2021/12/10 04:54:28;;;;;;;8.55;8.15;;;9.50;82.30;;;;;;5033495;28;20037;-89
2021/12/10 04:56:57;;;;;;;8.35;7.95;;;9.50;82.30;;;;;;5050184;28;20029;-90
2021/12/10 04:59:23;;;;;;;7.85;7.47;;;9.40;82.30;;;;;;5050034;28;20025;-88
2021/12/10 05:01:53;;;;;;;8.05;7.65;;;9.40;82.40;;;;;;5014834;28;20402;-90
2021/12/10 05:04:19;;;;;;;8.48;7.97;;;9.40;82.40;;;;;;5030068;28;20041;-90
2021/12/10 05:06:45;;;;;;;8.38;7.97;;;9.40;82.30;;;;;;5050716;28;20025;-90
2021/12/10 05:09:12;;;;;;;8.60;8.20;;;9.30;82.30;;;;;;5050733;28;20033;-88
2021/12/10 05:11:38;;;;;;;7.43;7.13;;;9.30;82.30;;;;;;5050591;28;20025;-89
2021/12/10 05:14:05;;;;;;;8.02;7.63;;;9.30;82.20;;;;;;5050990;28;20037;-90
2021/12/10 05:16:33;;;;;;;8.45;7.95;;;9.30;82.20;;;;;;5033823;28;20029;-89
2021/12/10 05:19:00;;;;;;;8.13;7.72;;;9.30;82.20;;;;;;5033599;28;20040;-88
2021/12/10 05:21:29;;;;;;;7.93;7.55;;;9.30;82.20;;;;;;5050635;28;20036;-88
2021/12/10 05:23:56;;;;;;;8.25;7.85;;;9.30;82.20;;;;;;5050221;28;20470;-89
2021/12/10 05:26:22;;;;;;;8.13;7.72;;;9.30;82.20;;;;;;5018326;28;20092;-88
2021/12/10 05:28:48;;;;;;;8.18;7.78;;;9.30;82.10;;;;;;5050747;28;20044;-88
2021/12/10 05:31:14;;;;;;;8.25;7.85;;;9.30;82.10;;;;;;5032762;28;20402;-90
2021/12/10 05:33:41;;;;;;;8.40;8.00;;;9.30;82.10;;;;;;5050549;28;20040;-88
2021/12/10 05:36:07;;;;;;;8.48;8.07;;;9.30;82.00;;;;;;5050474;28;20393;-89
2021/12/10 05:38:33;;;;;;;8.45;8.05;;;9.30;82.00;;;;;;5032781;28;20045;-89
2021/12/10 05:41:00;;;;;;;9.63;9.05;;;9.30;81.90;;;;;;5033404;28;20045;-90
2021/12/10 05:43:26;;;;;;;8.60;8.20;;;9.30;81.90;;;;;;5034629;28;20037;-90
2021/12/10 05:45:52;;;;;;;8.20;7.80;;;9.40;81.90;;;;;;5049970;28;20048;-92
2021/12/10 05:48:19;;;;;;;8.50;8.00;;;9.30;81.90;;;;;;5033729;28;20040;-90
2021/12/10 05:50:45;;;;;;;8.13;7.72;;;9.30;81.80;;;;;;5034206;28;20037;-89
2021/12/10 05:53:12;;;;;;;7.50;7.20;;;9.30;81.80;;;;;;5050348;28;20032;-88
2021/12/10 05:55:39;;;;;;;8.07;7.53;;;9.30;81.90;;;;;;5037209;28;20040;-89
2021/12/10 05:58:06;;;;;;;8.25;7.85;;;9.30;82.00;;;;;;5054296;28;20021;-88
2021/12/10 06:00:43;;;;;;;8.27;7.88;;;9.30;81.90;;;;;;5036471;28;20040;-88
2021/12/10 06:03:09;;;;;;;21.35;8.40;;;9.30;81.90;;;;;;5037572;28;20090;-89
2021/12/10 06:05:35;;;;;;;7.93;7.53;;;9.30;81.80;;;;;;5053897;28;20393;-88
2021/12/10 06:08:02;;;;;;;7.43;7.13;;;9.30;81.70;;;;;;5054094;28;20041;-87
2021/12/10 06:10:29;;;;;;;13.18;12.50;;;9.30;81.60;;;;;;5038920;28;20108;-91
2021/12/10 06:12:55;;;;;;;7.57;7.28;;;9.20;81.60;;;;;;5052576;28;20029;-87
2021/12/10 06:15:22;;;;;;;7.57;7.28;;;9.20;81.60;;;;;;5054066;28;20021;-85
2021/12/10 06:17:48;;;;;;;7.50;7.20;;;9.20;81.70;;;;;;5053687;28;20017;-85
2021/12/10 06:20:17;;;;;;;9.00;8.40;;;9.10;81.70;;;;;;5054180;28;20040;-85
2021/12/10 06:22:43;;;;;;;7.68;7.35;;;9.10;81.80;;;;;;5033929;28;20045;-89
2021/12/10 06:25:09;;;;;;;7.70;7.38;;;9.10;81.70;;;;;;5036117;28;20405;-91
2021/12/10 06:27:36;;;;;;;7.55;7.25;;;9.10;81.80;;;;;;5054498;28;20033;-92
2021/12/10 06:30:03;;;;;;;7.80;7.40;;;9.10;81.70;;;;;;5036499;28;20048;-88
2021/12/10 06:32:29;;;;;;;7.70;7.35;;;9.00;81.80;;;;;;5037351;28;20386;-90
2021/12/10 06:34:55;;;;;;;7.10;6.80;;;9.00;81.70;;;;;;5037261;28;20470;-90
2021/12/10 06:37:21;;;;;;;7.40;7.10;;;9.00;81.70;;;;;;5053634;28;20040;-88
2021/12/10 06:39:47;;;;;;;7.47;7.18;;;9.00;81.80;;;;;;5053187;28;20413;-88
2021/12/10 06:42:13;;;;;;;7.70;7.35;;;9.00;81.80;;;;;;5053591;28;20025;-87
2021/12/10 06:44:39;;;;;;;7.15;6.85;;;8.90;81.70;;;;;;5054501;28;20505;-87
2021/12/10 06:47:08;;;;;;;7.93;7.53;;;8.90;81.80;;;;;;5036053;28;20048;-89
2021/12/10 06:49:34;;;;;;;7.60;7.30;;;8.80;81.70;;;;;;5051972;28;20025;-90
2021/12/10 06:52:01;;;;;;;7.72;7.38;;;8.80;81.80;;;;;;5053091;28;20021;-88
2021/12/10 06:54:28;;;;;;;7.85;7.47;;;8.80;81.90;;;;;;5052971;28;20040;-86
2021/12/10 06:56:56;;;;;;;8.30;7.90;;;8.80;81.90;;;;;;5052864;28;20029;-86
2021/12/10 06:59:24;;;;;;;8.30;7.90;;;8.70;81.90;;;;;;5053530;28;20040;-87
2021/12/10 07:01:51;;;;;;;7.93;7.53;;;8.70;82.00;;;;;;5036620;28;20036;-88
2021/12/10 07:04:17;;;;;;;7.78;7.38;;;8.70;82.00;;;;;;5052516;28;20041;-89
2021/12/10 07:06:44;;;;;;;8.00;7.60;;;8.70;82.00;;;;;;5051400;28;20029;-85
2021/12/10 07:09:22;;;;;;;6.88;6.57;;;8.70;82.00;;;;;;5052924;28;20039;-86
2021/12/10 07:11:48;;;;;;;9.15;7.75;;;8.70;82.00;;;;;;5035969;28;20406;-86
2021/12/10 07:14:15;;;;;;;7.93;7.53;;;8.70;81.90;;;;;;5054205;28;20390;-90
2021/12/10 07:16:41;;;;;;;7.82;6.38;;;8.70;81.90;;;;;;5052871;28;20033;-88
2021/12/10 07:19:07;;;;;;;6.93;6.63;;;8.70;81.80;;;;;;5052545;28;20033;-84
2021/12/10 07:21:34;;;;;;;7.20;6.90;;;8.70;81.80;;;;;;5052419;28;20036;-86
2021/12/10 07:24:01;;;;;;;7.00;6.70;;;8.70;81.80;;;;;;5052441;28;20041;-86
2021/12/10 07:26:28;;;;;;;7.20;6.90;;;8.70;81.80;;;;;;5053201;28;20509;-91
2021/12/10 07:28:55;;;;;;;7.15;6.85;;;8.70;81.70;;;;;;5052347;28;20032;-89
2021/12/10 07:31:21;;;;;;;8.20;7.80;;;8.70;81.80;;;;;;5035852;28;20072;-89
2021/12/10 07:33:47;;;;;;;7.68;7.38;;;8.60;81.70;;;;;;5051955;28;20409;-89
2021/12/10 07:36:15;;;;;;;7.43;7.13;;;8.60;81.70;;;;;;5035095;28;20044;-88
2021/12/10 07:38:41;;;;;;;7.43;7.13;;;8.60;81.70;;;;;;5052512;28;20496;-88
2021/12/10 07:41:07;;;;;;;8.05;7.65;;;8.60;81.70;;;;;;5035433;28;20045;-89
2021/12/10 07:43:34;;;;;;;18.02;8.05;;;8.60;81.70;;;;;;5052563;28;20036;-89
2021/12/10 07:46:00;;;;;;;7.75;7.40;;;8.60;81.70;;;;;;5051912;28;20397;-87
2021/12/10 07:48:27;;;;;;;7.72;7.32;;;8.60;81.70;;;;;;5051490;28;20045;-86
2021/12/10 07:51:15;;;;;;;7.45;7.15;;;8.60;81.70;;;;;;5051506;28;20021;-88
2021/12/10 07:53:42;;;;;;;7.38;7.07;;;8.60;81.70;;;;;;5035263;28;20044;-87
2021/12/10 07:56:09;;;;;;;7.50;7.10;;;8.60;81.60;;;;;;5035404;28;20505;-88
2021/12/10 07:58:37;;;;;;;7.97;7.57;;;8.60;81.60;;;;;;5049116;28;20033;-84
2021/12/10 08:01:07;;;;;;;7.85;7.47;;;8.50;81.60;;;;;;5046492;28;20040;-87
2021/12/10 08:03:33;;;;;;;7.75;7.43;;;8.50;81.60;;;;;;5035219;28;20029;-85
2021/12/10 08:05:59;;;;;;;7.35;7.05;;;8.50;81.60;;;;;;5051447;28;20037;-85
2021/12/10 08:08:25;;;;;;;8.00;7.60;;;8.50;81.60;;;;;;5050112;28;20037;-85
2021/12/10 08:10:53;;;;;;;7.63;7.30;;;8.50;81.60;;;;;;5052744;28;20466;-84
2021/12/10 08:13:22;;;;;;;7.80;7.40;;;8.50;81.60;;;;;;5049371;28;20033;-83
2021/12/10 08:15:49;;;;;;;8.10;7.70;;;8.50;81.60;;;;;;5034505;28;20037;-86
2021/12/10 08:18:15;;;;;;;7.50;7.20;;;8.50;81.60;;;;;;5044220;28;20033;-88
2021/12/10 08:20:42;;;;;;;8.15;7.75;;;8.50;81.60;;;;;;5033664;28;20041;-86
2021/12/10 08:23:08;;;;;;;8.05;7.65;;;8.50;81.50;;;;;;5033488;28;20041;-86
2021/12/10 08:25:35;;;;;;;7.95;7.55;;;8.50;81.50;;;;;;5033416;28;20048;-88
2021/12/10 08:28:01;;;;;;;7.50;7.20;;;8.50;81.40;;;;;;5033951;28;20363;-87
2021/12/10 08:30:28;;;;;;;7.55;7.25;;;8.50;81.40;;;;;;5049384;28;20033;-89
2021/12/10 08:32:55;;;;;;;7.97;7.57;;;8.60;81.40;;;;;;5034760;28;20486;-90
2021/12/10 08:35:23;;;;;;;8.05;7.65;;;8.60;81.30;;;;;;5048091;28;20024;-86
2021/12/10 08:37:53;;;;;;;7.47;7.18;;;8.60;81.20;;;;;;5034451;28;20482;-87
2021/12/10 08:40:22;;;;;;;7.85;7.50;;;8.70;81.20;;;;;;5046294;28;20044;-89
2021/12/10 08:42:49;;;;;;;8.10;7.70;;;8.70;81.10;;;;;;5048034;28;20489;-87
2021/12/10 08:45:15;;;;;;;7.45;7.15;;;8.70;81.00;;;;;;5047729;28;20041;-88
2021/12/10 08:47:41;;;;;;;7.88;7.47;;;8.70;81.00;;;;;;5049866;28;20041;-84
2021/12/10 08:50:09;;;;;;;7.57;7.28;;;8.70;81.00;;;;;;5050079;28;20060;-85
2021/12/10 08:52:35;;;;;;;7.55;7.25;;;8.70;81.20;;;;;;5049501;28;20033;-86
2021/12/10 08:55:01;;;;;;;8.10;7.70;;;8.70;81.10;;;;;;5049311;28;20033;-85
2021/12/10 08:57:27;;;;;;;8.18;7.78;;;8.70;81.00;;;;;;5034054;28;20078;-89
2021/12/10 08:59:53;;;;;;;7.25;6.95;;;8.70;81.00;;;;;;5043941;28;20037;-88
2021/12/10 09:02:19;;;;;;;8.93;8.52;;;8.80;81.10;;;;;;5050340;28;20383;-85
2021/12/10 09:04:46;;;;;;;7.70;7.35;;;8.80;80.80;;;;;;5034287;28;20053;-88
2021/12/10 09:07:13;;;;;;;7.68;7.35;;;8.70;80.70;;;;;;5027024;28;20040;-91
2021/12/10 09:09:41;;;;;;;8.00;7.60;;;8.70;80.70;;;;;;5031557;28;20052;-89
2021/12/10 09:12:16;;;;;;;7.25;6.95;;;8.60;80.80;;;;;;5034341;28;20056;-84
2021/12/10 09:14:46;;;;;;;7.63;7.32;;;8.60;81.00;;;;;;5047741;28;20038;-87
2021/12/10 09:17:16;;;;;;;7.55;7.25;;;8.60;81.00;;;;;;5047906;28;20505;-82
2021/12/10 09:19:42;;;;;;;7.50;7.20;;;8.50;81.80;;;;;;5051066;28;20470;-89
2021/12/10 09:22:09;;;;;;;7.40;7.10;;;8.50;81.10;;;;;;5046822;28;20462;-85
2021/12/10 09:24:36;;;;;;;11.32;10.82;;;8.60;81.10;;;;;;5047401;28;20067;-89
2021/12/10 09:27:03;;;;;;;8.30;7.90;;;8.60;81.20;;;;;;5049775;28;20043;-87
2021/12/10 09:29:37;;;;;;;7.90;7.47;;;8.70;81.20;;;;;;5030824;28;20061;-89
2021/12/10 09:32:06;;;;;;;7.75;7.40;;;8.80;81.10;;;;;;5050316;28;20029;-84
2021/12/10 09:34:32;;;;;;;8.30;7.90;;;8.90;80.80;;;;;;5032198;28;20029;-88
2021/12/10 09:36:58;;;;;;;8.75;8.35;;;8.90;80.70;;;;;;5047317;28;20032;-88
2021/12/10 09:39:25;;;;;;;8.25;7.85;;;9.00;80.60;;;;;;5049494;28;20021;-87
2021/12/10 09:41:51;;;;;;;8.48;8.07;;;9.00;80.50;;;;;;5043909;28;20033;-84
2021/12/10 09:44:17;;;;;;;8.07;7.65;;;9.10;80.50;;;;;;5047870;28;20060;-83
2021/12/10 09:46:44;;;;;;;7.90;7.55;;;9.10;80.40;;;;;;5050719;28;20037;-93
2021/12/10 09:49:11;;;;;;;8.35;7.95;;;9.10;80.40;;;;;;5034143;28;20055;-89
2021/12/10 09:51:40;;;;;;;8.55;8.15;;;9.20;80.40;;;;;;5048282;28;20029;-89
2021/12/10 09:54:11;;;;;;;10.90;10.40;;;9.30;80.40;;;;;;5043478;28;20025;-88
2021/12/10 09:56:42;;;;;;;7.88;7.53;;;9.30;80.30;;;;;;5048741;28;20025;-92
2021/12/10 09:59:09;;;;;;;8.35;7.95;;;9.40;80.10;;;;;;5032755;28;20052;-87
2021/12/10 10:01:39;;;;;;;8.70;8.30;;;9.50;80.00;;;;;;5048116;28;20405;-87
2021/12/10 10:04:05;;;;;;;8.38;7.97;;;9.40;79.90;;;;;;5045667;28;20390;-85
2021/12/10 10:06:38;;;;;;;9.23;8.82;;;9.50;80.00;;;;;;5048795;28;20048;-88
2021/12/10 10:09:05;;;;;;;8.35;7.95;;;9.40;79.90;;;;;;5043057;28;20030;-84
2021/12/10 10:11:33;;;;;;;9.18;8.52;;;9.40;80.00;;;;;;5047698;28;20479;-85
2021/12/10 10:13:59;;;;;;;8.35;7.95;;;9.40;80.00;;;;;;5033231;28;20048;-90
2021/12/10 10:16:26;;;;;;;8.55;8.15;;;9.40;80.00;;;;;;5031561;28;20033;-87
2021/12/10 10:18:53;;;;;;;8.70;8.30;;;9.40;80.00;;;;;;5032888;28;20037;-87
2021/12/10 10:21:23;;;;;;;8.90;8.50;;;9.40;80.00;;;;;;5048501;28;20025;-87
2021/12/10 10:23:49;;;;;;;8.35;7.95;;;9.40;79.90;;;;;;5034296;28;20498;-86
2021/12/10 10:26:21;;;;;;;8.85;8.45;;;9.40;79.70;;;;;;5049933;28;20462;-88
2021/12/10 10:28:47;;;;;;;8.65;8.25;;;9.40;79.80;;;;;;5050522;28;20021;-88
2021/12/10 10:31:18;;;;;;;9.43;9.02;;;9.40;79.80;;;;;;5030863;28;20037;-85
2021/12/10 10:33:45;;;;;;;;;;;9.50;79.80;;;;;;5033470;28;20033;-89
2021/12/10 10:36:19;;;;;;;8.10;7.70;;;9.50;79.40;;;;;;5049652;28;19916;-90
2021/12/10 10:38:53;;;;;;;9.80;9.30;;;9.50;79.10;;;;;;5033831;28;20115;-83
2021/12/10 10:41:21;;;;;;;9.60;9.20;;;9.50;79.20;;;;;;5052032;28;20029;-86
2021/12/10 10:43:48;;;;;;;8.70;8.30;;;9.60;79.10;;;;;;5053931;28;20033;-86
2021/12/10 10:46:14;;;;;;;9.25;8.85;;;9.90;78.60;;;;;;5033472;28;20057;-81
2021/12/10 10:48:41;;;;;;;9.20;8.80;;;10.20;78.00;;;;;;5052934;28;20490;-86
2021/12/10 10:51:12;;;;;;;8.95;8.55;;;10.30;77.00;;;;;;5054338;28;20397;-87
2021/12/10 10:53:47;;;;;;;9.15;8.75;;;10.40;76.90;;;;;;5053218;28;20040;-85
2021/12/10 10:56:27;;;;;;;9.32;8.93;;;10.30;77.00;;;;;;5053156;28;20040;-85
2021/12/10 10:58:56;;;;;;;9.43;9.02;;;10.30;77.20;;;;;;5032411;28;20410;-87
2021/12/10 11:01:27;;;;;;;10.38;9.77;;;10.30;77.50;;;;;;5037233;28;20509;-91
2021/12/10 11:04:12;;;;;;;24.83;9.95;;;10.20;77.60;;;;;;5053236;28;20033;-89
2021/12/10 11:06:41;;;;;;;11.55;11.05;;;10.30;77.80;;;;;;5053265;28;20124;-86
2021/12/10 11:09:09;;;;;;;9.57;9.18;;;10.30;77.50;;;;;;5052920;28;20025;-86
2021/12/10 11:11:41;;;;;;;12.63;12.02;;;10.50;77.40;;;;;;5052751;28;20031;-86
2021/12/10 11:14:16;;;;;;;9.27;8.88;;;10.60;77.10;;;;;;5052634;28;20025;-87
2021/12/10 11:16:44;;;;;;;21.10;10.00;;;10.60;76.80;;;;;;5051665;28;20037;-87
2021/12/10 11:19:19;;;;;;;9.07;8.57;;;10.60;76.70;;;;;;5052962;28;20496;-87
2021/12/10 11:21:49;;;;;;;9.27;8.88;;;10.50;76.80;;;;;;5052903;28;20029;-87
2021/12/10 11:24:26;;;;;;;9.10;8.70;;;10.50;77.00;;;;;;5052892;28;20032;-86
2021/12/10 11:26:59;;;;;;;8.93;8.52;;;10.40;77.10;;;;;;5052550;28;20052;-87
2021/12/10 11:29:33;;;;;;;9.43;9.02;;;10.40;78.00;;;;;;5045047;28;20037;-84
2021/12/10 11:32:00;;;;;;;9.43;9.02;;;10.30;77.00;;;;;;5035542;28;20417;-87
2021/12/10 11:34:51;;;;;;;9.70;9.30;;;10.30;77.00;;;;;;5049949;28;20029;-87
2021/12/10 11:37:37;;;;;;;10.35;9.85;;;10.20;76.50;;;;;;5051725;28;20393;-89
2021/12/10 11:40:03;;;;;;;10.50;9.10;;;10.20;76.40;;;;;;5051451;28;20033;-88
2021/12/10 11:42:48;;;;;;;10.10;9.60;;;10.10;76.40;;;;;;5050321;28;20033;-86
2021/12/10 11:45:40;;;;;;;9.30;8.90;;;10.00;76.30;;;;;;5041450;28;20064;-87
2021/12/10 11:48:11;;;;;;;9.63;9.23;;;9.80;76.20;;;;;;5050164;28;20044;-87
2021/12/10 11:50:44;;;;;;;9.95;9.48;;;9.70;76.70;;;;;;5049272;28;20471;-86
2021/12/10 11:53:14;;;;;;;9.77;9.38;;;9.60;76.60;;;;;;5050056;28;20501;-88
2021/12/10 11:56:33;;;;;;;10.30;9.80;;;9.40;76.70;;;;;;5022162;28;20044;-85
2021/12/10 11:59:10;;;;;;;9.48;9.07;;;9.40;76.90;;;;;;4988220;28;20042;-84
2021/12/10 12:01:47;;;;;;;9.50;9.10;;;9.40;77.00;;;;;;4989150;28;20042;-84
2021/12/10 12:04:17;;;;;;;10.70;9.65;;;9.30;77.00;;;;;;4991215;28;20046;-86
2021/12/10 12:06:43;;;;;;;10.13;9.63;;;9.30;77.10;;;;;;4956886;28;20514;-84
2021/12/10 12:09:29;;;;;;;10.32;9.82;;;9.20;77.10;;;;;;4990784;28;20034;-85
2021/12/10 12:12:14;;;;;;;9.20;8.80;;;9.20;77.30;;;;;;4973459;28;20407;-84
2021/12/10 12:14:47;;;;;;;11.82;11.32;;;9.10;77.60;;;;;;4990800;28;20042;-83
2021/12/10 12:17:31;;;;;;;9.18;8.77;;;9.00;77.70;;;;;;4974039;28;20158;-82
2021/12/10 12:19:57;;;;;;;8.55;8.15;;;8.90;77.60;;;;;;4991413;28;20030;-83
2021/12/10 12:25:28;;;;;;;8.15;7.75;;;8.80;77.90;;;;;;4970914;28;20034;-86
2021/12/10 12:28:11;;;;;;;7.13;6.82;;;8.80;77.90;;;;;;4969753;28;20037;-87
2021/12/10 12:31:19;;;;;;;8.15;7.75;;;8.80;77.80;;;;;;4959054;28;20030;-85
2021/12/10 12:33:57;;;;;;;7.50;7.20;;;8.80;77.80;;;;;;4994472;28;20393;-87
2021/12/10 12:36:49;;;;;;;8.43;8.02;;;8.80;77.70;;;;;;5050797;28;20048;-84
2021/12/10 12:39:39;;;;;;;7.90;7.50;;;8.80;77.70;;;;;;5043084;28;20037;-84
2021/12/10 12:42:16;;;;;;;7.38;7.07;;;8.70;77.80;;;;;;5033242;28;20047;-84
2021/12/10 12:44:42;;;;;;;7.78;7.40;;;8.70;78.00;;;;;;5049774;28;20516;-84
2021/12/10 12:47:12;;;;;;;8.38;7.97;;;8.60;78.00;;;;;;5050213;28;20045;-85
2021/12/10 12:49:41;;;;;;;8.32;7.93;;;8.60;78.20;;;;;;5066378;28;20429;-85
2021/12/10 12:52:09;;;;;;;7.82;7.47;;;8.60;78.30;;;;;;5051753;28;20033;-84
2021/12/10 12:54:37;;;;;;;8.00;7.60;;;8.60;78.30;;;;;;5050582;28;20378;-85
2021/12/10 12:57:04;;;;;;;8.43;8.02;;;8.60;78.40;;;;;;5048081;28;20451;-84
2021/12/10 12:59:31;;;;;;;8.38;7.97;;;8.70;78.50;;;;;;5050496;28;20047;-85
2021/12/10 13:01:59;;;;;;;9.52;9.13;;;8.70;78.40;;;;;;5041000;28;20029;-86
2021/12/10 13:04:33;;;;;;;8.60;8.20;;;8.80;78.30;;;;;;5050234;28;20032;-86
2021/12/10 13:07:02;;;;;;;8.35;7.95;;;8.90;78.10;;;;;;5034709;28;20040;-85
2021/12/10 13:09:48;;;;;;;8.20;7.80;;;8.90;77.90;;;;;;5049731;28;20021;-85
2021/12/10 13:15:00;;;;;;;7.85;7.45;;;8.80;77.90;;;;;;5053862;28;20025;-85